Time;durP1;ratioP1;P1;durP2;ratioP2;P2;SDS_P1;SDS_P2;PMS_P1;PMS_P2;Temp;Humidity;BMP_temperature;BMP_pressure;BME280_temperature;BME280_humidity;BME280_pressure;Samples;Min_cycle;Max_cycle;Signal;HPM_P1;HPM_P2
2022/01/14 00:02:13;;;;;;;54.30;18.30;;;;;;;;;;5051213;28;20045;-63
2022/01/14 00:04:39;;;;;;;47.65;18.17;;;;;;;;;;5051113;28;20041;-63
2022/01/14 00:07:05;;;;;;;51.92;18.30;;;;;;;;;;5051619;28;20040;-63
2022/01/14 00:09:33;;;;;;;50.85;18.20;;;;;;;;;;5051489;28;20095;-63
2022/01/14 00:12:00;;;;;;;47.83;17.30;;;;;;;;;;5050919;28;20044;-63
2022/01/14 00:14:55;;;;;;;55.95;19.30;;;;;;;;;;5051245;28;20250;-63
2022/01/14 00:17:21;;;;;;;50.97;17.38;;;;;;;;;;5050845;28;20067;-63
2022/01/14 00:19:48;;;;;;;49.67;18.23;;;;;;;;;;5051479;28;20037;-63
2022/01/14 00:22:16;;;;;;;52.97;19.00;;;;;;;;;;5055200;28;20041;-63
2022/01/14 00:33:01;;;;;;;54.83;20.65;;;;;;;;;;5074752;28;20052;-63
2022/01/14 00:35:27;;;;;;;64.30;20.65;;;;;;;;;;5075177;28;20048;-63
2022/01/14 00:37:53;;;;;;;54.60;20.52;;;;;;;;;;5075339;28;20040;-63
2022/01/14 00:40:19;;;;;;;56.30;20.08;;;;;;;;;;5074508;28;20055;-63
2022/01/14 00:42:46;;;;;;;58.42;19.80;;;;;;;;;;5074930;28;20086;-63
2022/01/14 00:45:12;;;;;;;52.53;18.88;;;;;;;;;;5074980;28;20067;-63
2022/01/14 00:47:40;;;;;;;60.95;20.70;;;;;;;;;;5074419;28;20127;-63
2022/01/14 00:50:07;;;;;;;58.65;19.38;;;;;;;;;;5075023;28;20083;-62
2022/01/14 00:52:34;;;;;;;56.28;20.10;;;;;;;;;;5107639;28;20055;-63
2022/01/14 00:55:00;;;;;;;56.45;20.13;;;;;;;;;;5072489;28;20063;-63
2022/01/14 00:59:14;;;;;;;57.22;20.25;;;;;;;;;;5074873;28;20525;-63
2022/01/14 01:00:12;;;;;;;56.03;20.08;;;;;;;;;;5074430;28;20051;-63
2022/01/14 01:02:38;;;;;;;49.63;19.90;;;;;;;;;;5073719;28;20056;-63
2022/01/14 01:05:04;;;;;;;55.08;20.45;;;;;;;;;;5074340;28;20356;-63
2022/01/14 01:07:30;;;;;;;55.08;20.35;;;;;;;;;;5074646;28;20041;-63
2022/01/14 01:09:56;;;;;;;56.70;19.83;;;;;;;;;;5106584;28;20045;-63
2022/01/14 01:12:34;;;;;;;57.05;20.98;;;;;;;;;;5074586;28;20532;-63
2022/01/14 01:15:09;;;;;;;61.17;20.20;;;;;;;;;;5074347;28;20119;-63
2022/01/14 01:17:35;;;;;;;61.25;19.65;;;;;;;;;;5073877;28;20044;-63
2022/01/14 01:20:03;;;;;;;53.97;21.70;;;;;;;;;;5074463;28;20795;-63
2022/01/14 01:22:30;;;;;;;51.20;20.58;;;;;;;;;;5106741;28;20423;-63
2022/01/14 01:24:56;;;;;;;51.78;20.45;;;;;;;;;;5072063;28;20041;-63
2022/01/14 01:27:22;;;;;;;47.03;19.65;;;;;;;;;;5073816;28;20056;-63
2022/01/14 01:30:11;;;;;;;61.42;20.80;;;;;;;;;;5074072;28;20044;-63
2022/01/14 01:32:37;;;;;;;52.70;20.20;;;;;;;;;;5072196;28;20898;-63
2022/01/14 01:35:04;;;;;;;52.55;19.70;;;;;;;;;;5073780;28;20406;-63
2022/01/14 01:37:30;;;;;;;56.22;21.50;;;;;;;;;;5073936;28;20044;-63
2022/01/14 01:39:56;;;;;;;53.35;20.50;;;;;;;;;;5071951;28;20127;-63
2022/01/14 01:42:27;;;;;;;54.38;20.65;;;;;;;;;;5073875;28;20041;-63
2022/01/14 01:44:54;;;;;;;56.28;21.00;;;;;;;;;;5073747;28;20044;-63
2022/01/14 01:47:22;;;;;;;56.58;21.65;;;;;;;;;;5073098;28;20045;-63
2022/01/14 01:49:48;;;;;;;50.55;20.67;;;;;;;;;;5074019;28;20037;-63
2022/01/14 01:52:14;;;;;;;48.50;19.65;;;;;;;;;;5073874;28;20093;-63
2022/01/14 01:54:40;;;;;;;52.30;19.80;;;;;;;;;;5073025;28;20045;-63
2022/01/14 01:57:07;;;;;;;52.88;20.55;;;;;;;;;;5072481;28;20467;-63
2022/01/14 01:59:33;;;;;;;53.63;21.58;;;;;;;;;;5073667;28;20037;-63
2022/01/14 02:01:59;;;;;;;48.80;20.85;;;;;;;;;;5072669;28;20040;-63
2022/01/14 02:04:26;;;;;;;57.60;20.52;;;;;;;;;;5073556;28;20036;-63
2022/01/14 02:06:53;;;;;;;43.80;20.35;;;;;;;;;;5072274;28;20047;-63
2022/01/14 02:09:19;;;;;;;53.20;20.98;;;;;;;;;;5072880;28;20036;-63
2022/01/14 02:11:46;;;;;;;49.22;20.52;;;;;;;;;;5073431;28;20032;-63
2022/01/14 02:14:26;;;;;;;45.92;20.40;;;;;;;;;;5072983;28;20040;-63
2022/01/14 02:22:49;;;;;;;53.20;22.02;;;;;;;;;;5073227;28;20383;-63
2022/01/14 02:25:16;;;;;;;46.40;21.38;;;;;;;;;;5072555;28;20663;-63
2022/01/14 02:27:42;;;;;;;51.78;21.50;;;;;;;;;;5073108;28;20051;-63
2022/01/14 02:30:09;;;;;;;51.08;21.10;;;;;;;;;;5072728;28;20097;-63
2022/01/14 02:32:36;;;;;;;55.17;21.80;;;;;;;;;;5072293;28;20044;-63
2022/01/14 02:35:02;;;;;;;58.13;22.77;;;;;;;;;;5072843;28;20071;-63
2022/01/14 02:37:28;;;;;;;49.17;22.42;;;;;;;;;;5072709;28;20380;-63
2022/01/14 02:39:54;;;;;;;48.70;21.70;;;;;;;;;;5072139;28;20681;-63
2022/01/14 02:42:20;;;;;;;49.25;22.90;;;;;;;;;;5072726;28;20087;-63
2022/01/14 02:44:48;;;;;;;47.30;22.90;;;;;;;;;;5072140;28;20429;-63
2022/01/14 02:47:17;;;;;;;51.08;22.77;;;;;;;;;;5071620;28;20040;-63
2022/01/14 02:49:44;;;;;;;50.88;21.77;;;;;;;;;;5072671;28;20045;-63
2022/01/14 02:52:10;;;;;;;50.25;23.38;;;;;;;;;;5072233;28;20051;-63
2022/01/14 02:54:51;;;;;;;52.03;23.85;;;;;;;;;;5071676;28;20044;-63
2022/01/14 02:57:18;;;;;;;56.92;23.50;;;;;;;;;;5072468;28;20055;-63
2022/01/14 02:59:45;;;;;;;54.05;23.88;;;;;;;;;;5072468;28;20048;-63
2022/01/14 03:02:11;;;;;;;57.45;23.48;;;;;;;;;;5071554;28;20127;-63
2022/01/14 03:04:39;;;;;;;55.03;23.58;;;;;;;;;;5072000;28;20044;-63
2022/01/14 03:07:07;;;;;;;54.28;22.73;;;;;;;;;;5072293;28;20487;-63
2022/01/14 03:09:33;;;;;;;55.00;22.83;;;;;;;;;;5071674;28;20041;-63
2022/01/14 03:12:02;;;;;;;50.80;22.05;;;;;;;;;;5072260;28;20093;-63
2022/01/14 03:14:28;;;;;;;50.28;22.33;;;;;;;;;;5072041;28;20055;-63
2022/01/14 03:16:57;;;;;;;54.13;22.88;;;;;;;;;;5071564;28;20044;-63
2022/01/14 03:19:25;;;;;;;51.35;22.25;;;;;;;;;;5072248;28;20049;-63
2022/01/14 03:21:56;;;;;;;52.47;21.48;;;;;;;;;;5072126;28;20067;-63
2022/01/14 03:25:36;;;;;;;45.28;20.55;;;;;;;;;;5071455;28;20037;-63
2022/01/14 03:27:08;;;;;;;56.25;22.13;;;;;;;;;;5071423;28;20110;-63
2022/01/14 03:29:34;;;;;;;51.72;20.40;;;;;;;;;;5070265;28;20090;-63
2022/01/14 03:32:01;;;;;;;50.65;21.80;;;;;;;;;;5071483;28;20133;-63
2022/01/14 03:34:27;;;;;;;54.08;21.45;;;;;;;;;;5071821;28;20060;-63
2022/01/14 03:36:53;;;;;;;49.58;20.30;;;;;;;;;;5071540;28;20048;-63
2022/01/14 03:39:20;;;;;;;53.97;20.20;;;;;;;;;;5071863;28;20044;-63
2022/01/14 03:41:46;;;;;;;48.75;21.42;;;;;;;;;;5071926;28;20040;-63
2022/01/14 03:44:12;;;;;;;45.83;20.52;;;;;;;;;;5071503;28;20032;-63
2022/01/14 03:46:38;;;;;;;48.63;20.02;;;;;;;;;;5071418;28;20040;-63
2022/01/14 03:49:04;;;;;;;62.45;22.38;;;;;;;;;;5071828;28;20122;-63
2022/01/14 03:51:30;;;;;;;48.67;21.75;;;;;;;;;;5071756;28;20037;-63
2022/01/14 03:53:56;;;;;;;48.40;21.40;;;;;;;;;;5069487;28;20047;-63
2022/01/14 03:56:23;;;;;;;54.03;21.55;;;;;;;;;;5069138;28;20158;-63
2022/01/14 03:58:49;;;;;;;52.53;21.85;;;;;;;;;;5071688;28;20438;-63
2022/01/14 04:01:16;;;;;;;48.17;21.30;;;;;;;;;;5070927;28;20120;-63
2022/01/14 04:03:42;;;;;;;50.60;22.50;;;;;;;;;;5071465;28;20373;-63
2022/01/14 04:06:10;;;;;;;47.00;20.08;;;;;;;;;;5071645;28;20064;-63
2022/01/14 04:08:37;;;;;;;44.08;20.30;;;;;;;;;;5070657;28;20048;-63
2022/01/14 04:11:04;;;;;;;53.67;22.10;;;;;;;;;;5071271;28;20108;-63
2022/01/14 04:16:02;;;;;;;56.13;21.42;;;;;;;;;;5070521;28;20044;-63
2022/01/14 04:18:29;;;;;;;49.58;20.95;;;;;;;;;;5071364;28;20040;-63
2022/01/14 04:20:55;;;;;;;42.00;20.33;;;;;;;;;;5071538;28;20040;-63
2022/01/14 04:23:22;;;;;;;47.08;21.15;;;;;;;;;;5070243;28;20048;-63
2022/01/14 04:25:51;;;;;;;45.08;21.15;;;;;;;;;;5071192;28;20045;-63
2022/01/14 04:28:18;;;;;;;47.20;20.58;;;;;;;;;;5071368;28;20076;-63
2022/01/14 04:30:44;;;;;;;50.38;21.48;;;;;;;;;;5070657;28;20048;-63
2022/01/14 04:33:10;;;;;;;54.45;22.30;;;;;;;;;;5071139;28;20388;-63
2022/01/14 04:35:37;;;;;;;42.15;21.77;;;;;;;;;;5071359;28;20421;-63
2022/01/14 04:38:03;;;;;;;42.13;19.77;;;;;;;;;;5070593;28;20044;-63
2022/01/14 04:40:29;;;;;;;52.58;21.85;;;;;;;;;;5071286;28;20043;-63
2022/01/14 04:42:57;;;;;;;51.58;21.65;;;;;;;;;;5071054;28;20464;-63
2022/01/14 04:48:02;;;;;;;47.45;21.27;;;;;;;;;;5071138;28;20044;-63
2022/01/14 04:50:28;;;;;;;45.63;20.42;;;;;;;;;;5071244;28;20400;-63
2022/01/14 04:52:54;;;;;;;44.05;20.40;;;;;;;;;;5070260;28;20040;-63
2022/01/14 04:55:22;;;;;;;51.90;21.63;;;;;;;;;;5070761;28;20051;-63
2022/01/14 04:57:48;;;;;;;47.25;21.30;;;;;;;;;;5071056;28;20040;-63
2022/01/14 05:00:15;;;;;;;46.65;21.08;;;;;;;;;;5070281;28;20036;-62
2022/01/14 05:02:42;;;;;;;43.03;21.88;;;;;;;;;;5070863;28;20045;-62
2022/01/14 05:05:08;;;;;;;48.55;21.95;;;;;;;;;;5069439;28;20044;-63
2022/01/14 05:07:35;;;;;;;47.13;21.52;;;;;;;;;;5072626;28;20040;-62
2022/01/14 05:12:39;;;;;;;46.90;19.75;;;;;;;;;;5074206;28;20055;-63
2022/01/14 05:15:05;;;;;;;47.05;20.02;;;;;;;;;;5073697;28;20543;-63
2022/01/14 05:17:31;;;;;;;46.28;20.10;;;;;;;;;;5074552;28;20040;-63
2022/01/14 05:19:58;;;;;;;42.67;20.92;;;;;;;;;;5074335;28;20051;-63
2022/01/14 05:22:25;;;;;;;39.78;19.67;;;;;;;;;;5071994;28;20044;-63
2022/01/14 05:24:51;;;;;;;44.05;20.08;;;;;;;;;;5074141;28;20115;-63
2022/01/14 05:27:17;;;;;;;39.38;19.42;;;;;;;;;;5073803;28;20052;-63
2022/01/14 05:29:43;;;;;;;42.45;19.95;;;;;;;;;;5073486;28;20040;-63
2022/01/14 05:32:13;;;;;;;48.72;21.02;;;;;;;;;;5074217;28;20370;-63
2022/01/14 05:34:39;;;;;;;46.35;21.48;;;;;;;;;;5073710;28;20052;-63
2022/01/14 05:37:06;;;;;;;43.10;19.75;;;;;;;;;;5073629;28;20634;-63
2022/01/14 05:39:32;;;;;;;43.20;19.98;;;;;;;;;;5074120;28;20086;-63
2022/01/14 05:41:59;;;;;;;46.47;19.65;;;;;;;;;;5073930;28;20033;-63
2022/01/14 05:44:26;;;;;;;41.35;19.75;;;;;;;;;;5073009;28;20447;-63
2022/01/14 05:46:53;;;;;;;48.20;20.83;;;;;;;;;;5072667;28;20048;-63
2022/01/14 05:49:19;;;;;;;42.80;20.17;;;;;;;;;;5073877;28;20515;-63
2022/01/14 05:51:45;;;;;;;46.60;20.13;;;;;;;;;;5073279;28;20033;-63
2022/01/14 05:54:12;;;;;;;42.90;20.27;;;;;;;;;;5073656;28;20422;-63
2022/01/14 05:56:38;;;;;;;41.10;19.58;;;;;;;;;;5073618;28;20044;-63
2022/01/14 05:59:04;;;;;;;44.03;20.55;;;;;;;;;;5072797;28;20124;-63
2022/01/14 06:01:30;;;;;;;52.30;21.38;;;;;;;;;;5072071;28;20460;-63
2022/01/14 06:03:57;;;;;;;38.60;19.45;;;;;;;;;;5073178;28;20098;-63
2022/01/14 06:06:24;;;;;;;43.42;19.17;;;;;;;;;;5072639;28;20041;-63
2022/01/14 06:08:50;;;;;;;41.60;20.13;;;;;;;;;;5073527;28;20470;-63
2022/01/14 06:11:16;;;;;;;42.28;19.23;;;;;;;;;;5073341;28;20119;-63
2022/01/14 06:13:42;;;;;;;39.95;20.20;;;;;;;;;;5072138;28;20083;-63
2022/01/14 06:16:08;;;;;;;44.20;19.50;;;;;;;;;;5073146;28;20079;-63
2022/01/14 06:18:34;;;;;;;40.60;19.73;;;;;;;;;;5072653;28;20045;-63
2022/01/14 06:21:00;;;;;;;40.65;19.85;;;;;;;;;;5072478;28;20057;-63
2022/01/14 06:23:26;;;;;;;45.10;20.73;;;;;;;;;;5072830;28;20055;-63
2022/01/14 06:25:52;;;;;;;37.92;20.23;;;;;;;;;;5072635;28;20049;-63
2022/01/14 06:28:18;;;;;;;39.80;18.58;;;;;;;;;;5072364;28;20059;-63
2022/01/14 06:30:44;;;;;;;38.95;19.10;;;;;;;;;;5072783;28;20115;-63
2022/01/14 06:33:10;;;;;;;35.58;19.83;;;;;;;;;;5071496;28;20044;-63
2022/01/14 06:35:37;;;;;;;37.92;19.65;;;;;;;;;;5072279;28;20115;-63
2022/01/14 06:38:03;;;;;;;40.42;20.92;;;;;;;;;;5072824;28;20041;-63
2022/01/14 06:40:30;;;;;;;40.20;19.80;;;;;;;;;;5072798;28;20040;-63
2022/01/14 06:42:56;;;;;;;40.17;19.48;;;;;;;;;;5104461;28;20052;-63
2022/01/14 06:45:23;;;;;;;38.50;20.23;;;;;;;;;;5072644;28;20032;-63
2022/01/14 06:47:49;;;;;;;32.35;17.65;;;;;;;;;;5072755;28;20036;-63
2022/01/14 06:50:16;;;;;;;41.38;19.55;;;;;;;;;;5071983;28;20035;-63
2022/01/14 06:52:42;;;;;;;45.60;19.48;;;;;;;;;;5072851;28;20407;-63
2022/01/14 06:55:08;;;;;;;42.03;19.98;;;;;;;;;;5071996;28;20123;-63
2022/01/14 06:57:35;;;;;;;40.95;21.40;;;;;;;;;;5072010;28;20123;-63
2022/01/14 07:00:03;;;;;;;38.20;20.17;;;;;;;;;;5072041;28;20044;-63
2022/01/14 07:02:30;;;;;;;42.65;20.73;;;;;;;;;;5072213;28;20040;-63
2022/01/14 07:04:56;;;;;;;37.08;20.13;;;;;;;;;;5071225;28;20135;-63
2022/01/14 07:07:22;;;;;;;39.58;19.60;;;;;;;;;;5072160;28;20040;-63
2022/01/14 07:09:57;;;;;;;42.15;19.63;;;;;;;;;;5072293;28;20090;-63
2022/01/14 07:12:27;;;;;;;41.28;21.02;;;;;;;;;;5070197;28;20040;-64
2022/01/14 07:14:54;;;;;;;38.25;19.45;;;;;;;;;;5071006;28;20041;-64
2022/01/14 07:17:20;;;;;;;41.05;18.95;;;;;;;;;;5071502;28;20037;-65
2022/01/14 07:19:48;;;;;;;49.47;19.38;;;;;;;;;;5071146;28;20049;-64
2022/01/14 07:22:14;;;;;;;37.13;19.35;;;;;;;;;;5071198;28;20050;-62
2022/01/14 07:24:40;;;;;;;39.42;19.88;;;;;;;;;;5071551;28;20104;-65
2022/01/14 07:27:06;;;;;;;44.75;21.17;;;;;;;;;;5069107;28;20467;-63
2022/01/14 07:29:32;;;;;;;39.25;19.77;;;;;;;;;;5071153;28;20535;-63
2022/01/14 07:31:59;;;;;;;42.65;21.05;;;;;;;;;;5071285;28;20123;-62
2022/01/14 07:34:25;;;;;;;39.55;19.60;;;;;;;;;;5068569;28;20051;-62
2022/01/14 07:36:52;;;;;;;36.97;20.48;;;;;;;;;;5064588;28;20379;-61
2022/01/14 07:39:19;;;;;;;41.80;20.23;;;;;;;;;;5069405;28;20037;-61
2022/01/14 07:41:48;;;;;;;33.67;18.00;;;;;;;;;;5070060;28;20036;-61
2022/01/14 07:44:15;;;;;;;40.83;20.23;;;;;;;;;;5071227;28;20394;-62
2022/01/14 07:46:41;;;;;;;47.85;19.70;;;;;;;;;;5070745;28;20128;-63
2022/01/14 07:49:07;;;;;;;41.47;19.55;;;;;;;;;;5070053;28;20097;-63
2022/01/14 07:51:33;;;;;;;36.80;18.77;;;;;;;;;;5071479;28;20077;-63
2022/01/14 07:54:04;;;;;;;39.08;20.50;;;;;;;;;;5070225;28;20459;-62
2022/01/14 07:56:32;;;;;;;42.63;19.80;;;;;;;;;;5070029;28;20083;-62
2022/01/14 07:58:58;;;;;;;44.10;19.23;;;;;;;;;;5070752;28;20287;-63
2022/01/14 08:01:24;;;;;;;41.53;19.25;;;;;;;;;;5068834;28;20115;-63
2022/01/14 08:03:50;;;;;;;39.50;18.42;;;;;;;;;;5070253;28;20048;-63
2022/01/14 08:06:17;;;;;;;34.80;18.33;;;;;;;;;;5069810;28;20040;-63
2022/01/14 08:08:43;;;;;;;34.47;18.10;;;;;;;;;;5069652;28;20097;-63
2022/01/14 08:11:09;;;;;;;37.30;18.35;;;;;;;;;;5069713;28;20120;-63
2022/01/14 08:13:35;;;;;;;38.25;18.90;;;;;;;;;;5070880;28;20050;-64
2022/01/14 08:16:02;;;;;;;37.67;18.50;;;;;;;;;;5070427;28;20127;-64
2022/01/14 08:18:28;;;;;;;34.85;19.85;;;;;;;;;;5069614;28;20048;-64
2022/01/14 08:20:56;;;;;;;40.47;18.50;;;;;;;;;;5070765;28;20125;-64
2022/01/14 08:23:22;;;;;;;37.28;18.10;;;;;;;;;;5069632;28;20498;-64
2022/01/14 08:25:53;;;;;;;31.67;17.73;;;;;;;;;;5068308;28;20051;-64
2022/01/14 08:28:19;;;;;;;31.85;16.30;;;;;;;;;;5070086;28;20105;-64
2022/01/14 08:30:45;;;;;;;33.53;16.98;;;;;;;;;;5070204;28;20040;-63
2022/01/14 08:33:12;;;;;;;35.45;16.58;;;;;;;;;;5069497;28;20155;-64
2022/01/14 08:35:38;;;;;;;30.58;16.60;;;;;;;;;;5069518;28;20083;-64
2022/01/14 08:38:04;;;;;;;33.13;16.52;;;;;;;;;;5070176;28;20131;-63
2022/01/14 08:40:32;;;;;;;32.95;17.20;;;;;;;;;;5069925;28;20053;-63
2022/01/14 08:42:58;;;;;;;35.13;16.48;;;;;;;;;;5073624;28;20091;-65
2022/01/14 08:45:24;;;;;;;34.38;16.45;;;;;;;;;;5073825;28;20044;-63
2022/01/14 08:47:52;;;;;;;30.17;15.73;;;;;;;;;;5073870;28;20604;-63
2022/01/14 08:50:19;;;;;;;28.77;15.02;;;;;;;;;;5073383;28;20102;-63
2022/01/14 08:52:46;;;;;;;35.08;15.60;;;;;;;;;;5074053;28;20370;-63
2022/01/14 08:55:14;;;;;;;37.00;15.77;;;;;;;;;;5073131;28;20044;-63
2022/01/14 08:57:41;;;;;;;29.90;13.93;;;;;;;;;;5074527;28;20495;-63
2022/01/14 09:00:07;;;;;;;27.10;14.90;;;;;;;;;;5071714;28;20052;-63
2022/01/14 09:02:34;;;;;;;28.60;13.77;;;;;;;;;;5073511;28;20485;-64
2022/01/14 09:05:00;;;;;;;30.52;13.30;;;;;;;;;;5072307;28;20076;-64
2022/01/14 09:07:28;;;;;;;28.83;13.27;;;;;;;;;;5071926;28;20085;-64
2022/01/14 09:09:54;;;;;;;32.00;15.43;;;;;;;;;;5073757;28;20368;-65
2022/01/14 09:12:20;;;;;;;40.08;14.60;;;;;;;;;;5073190;28;20048;-65
2022/01/14 09:14:46;;;;;;;26.23;13.13;;;;;;;;;;5073559;28;20036;-63
2022/01/14 09:17:13;;;;;;;26.33;13.15;;;;;;;;;;5072704;28;20041;-64
2022/01/14 09:19:40;;;;;;;29.63;13.02;;;;;;;;;;5071707;28;20064;-64
2022/01/14 09:22:06;;;;;;;25.92;12.52;;;;;;;;;;5073337;28;20673;-64
2022/01/14 09:24:33;;;;;;;27.08;12.57;;;;;;;;;;5054037;28;20038;-63
2022/01/14 09:26:59;;;;;;;24.55;12.75;;;;;;;;;;5069250;28;20132;-64
2022/01/14 09:29:25;;;;;;;26.23;12.40;;;;;;;;;;5073459;28;20161;-63
2022/01/14 09:31:51;;;;;;;32.10;14.10;;;;;;;;;;5073525;28;20074;-64
2022/01/14 09:34:17;;;;;;;33.78;13.48;;;;;;;;;;5070871;28;20049;-65
2022/01/14 09:36:43;;;;;;;26.98;12.55;;;;;;;;;;5073655;28;20051;-64
2022/01/14 09:39:09;;;;;;;28.55;13.13;;;;;;;;;;5073305;28;20119;-64
2022/01/14 09:41:35;;;;;;;30.70;13.23;;;;;;;;;;5072077;28;20080;-64
2022/01/14 09:44:02;;;;;;;34.05;13.18;;;;;;;;;;5072445;28;20040;-64
2022/01/14 09:46:28;;;;;;;31.50;13.32;;;;;;;;;;5073441;28;20074;-64
2022/01/14 09:48:54;;;;;;;26.48;12.90;;;;;;;;;;5072648;28;20068;-64
2022/01/14 09:51:20;;;;;;;32.10;13.23;;;;;;;;;;5070531;28;20044;-64
2022/01/14 09:53:47;;;;;;;28.70;13.30;;;;;;;;;;5063387;28;20043;-64
2022/01/14 09:56:20;;;;;;;23.65;12.38;;;;;;;;;;5071040;28;20051;-65
2022/01/14 09:58:48;;;;;;;29.05;12.88;;;;;;;;;;5073074;28;20467;-66
2022/01/14 10:01:16;;;;;;;29.08;13.20;;;;;;;;;;5072235;28;20102;-65
2022/01/14 10:03:48;;;;;;;28.33;11.43;;;;;;;;;;5069252;28;20036;-64
2022/01/14 10:06:14;;;;;;;;;;;;;;;;;;5071649;28;20045;-64
2022/01/14 10:08:43;;;;;;;24.85;10.57;;;;;;;;;;5072791;28;19988;-66
2022/01/14 10:11:09;;;;;;;21.17;10.35;;;;;;;;;;5070965;28;20029;-65
2022/01/14 10:13:37;;;;;;;24.90;10.20;;;;;;;;;;5071139;28;20040;-65
2022/01/14 10:16:03;;;;;;;25.92;10.40;;;;;;;;;;5053397;28;20052;-67
2022/01/14 10:18:30;;;;;;;30.60;10.32;;;;;;;;;;5069851;28;20426;-66
2022/01/14 10:21:01;;;;;;;31.13;10.80;;;;;;;;;;5070617;28;20506;-64
2022/01/14 10:23:47;;;;;;;21.27;9.60;;;;;;;;;;5071369;28;20820;-65
2022/01/14 10:26:14;;;;;;;21.75;9.93;;;;;;;;;;5070056;28;20060;-66
2022/01/14 10:28:44;;;;;;;23.55;9.20;;;;;;;;;;5070182;28;20036;-65
2022/01/14 10:31:10;;;;;;;24.40;8.95;;;;;;;;;;5071559;28;20057;-67
2022/01/14 10:33:36;;;;;;;23.75;9.40;;;;;;;;;;5069081;28;20127;-66
2022/01/14 10:36:03;;;;;;;22.33;8.25;;;;;;;;;;5070330;28;20101;-65
2022/01/14 10:38:38;;;;;;;18.85;8.10;;;;;;;;;;5072036;28;20423;-66
2022/01/14 10:41:06;;;;;;;20.48;7.30;;;;;;;;;;5068664;28;20047;-66
2022/01/14 10:43:35;;;;;;;14.98;7.22;;;;;;;;;;5070586;28;20047;-66
2022/01/14 10:46:04;;;;;;;18.58;8.00;;;;;;;;;;5070573;28;20062;-66
2022/01/14 10:48:32;;;;;;;18.30;7.20;;;;;;;;;;5070395;28;20048;-65
2022/01/14 10:50:58;;;;;;;15.88;7.05;;;;;;;;;;5071406;28;20490;-65
2022/01/14 10:53:26;;;;;;;13.90;6.40;;;;;;;;;;5071626;28;20072;-65
2022/01/14 10:55:53;;;;;;;14.15;6.53;;;;;;;;;;5070463;28;20040;-66
2022/01/14 10:58:26;;;;;;;16.08;6.13;;;;;;;;;;5071430;28;20040;-65
2022/01/14 11:01:00;;;;;;;14.00;5.65;;;;;;;;;;5070303;28;20111;-66
2022/01/14 11:03:36;;;;;;;12.73;5.43;;;;;;;;;;5070319;28;20047;-66
2022/01/14 11:06:22;;;;;;;16.27;5.85;;;;;;;;;;5069990;28;20047;-65
2022/01/14 11:08:48;;;;;;;15.18;6.15;;;;;;;;;;5070451;28;20040;-65
2022/01/14 11:11:15;;;;;;;16.27;5.78;;;;;;;;;;5069711;28;20123;-63
2022/01/14 11:13:41;;;;;;;17.38;5.63;;;;;;;;;;5069498;28;20052;-64
2022/01/14 11:16:07;;;;;;;11.90;5.22;;;;;;;;;;5070290;28;20089;-64
2022/01/14 11:18:33;;;;;;;18.10;5.43;;;;;;;;;;5071622;28;20043;-64
2022/01/14 11:23:45;;;;;;;10.85;4.80;;;;;;;;;;5058417;28;20053;-65
2022/01/14 11:26:16;;;;;;;14.93;5.80;;;;;;;;;;5071078;28;20053;-66
2022/01/14 11:28:43;;;;;;;17.20;4.75;;;;;;;;;;5071035;28;20036;-65
2022/01/14 11:31:28;;;;;;;12.02;5.53;;;;;;;;;;5069028;28;20040;-66
2022/01/14 11:33:54;;;;;;;15.80;6.05;;;;;;;;;;5070090;28;20389;-66
2022/01/14 11:36:21;;;;;;;14.90;5.80;;;;;;;;;;5069469;28;20040;-66
2022/01/14 11:38:47;;;;;;;17.13;6.07;;;;;;;;;;5070595;28;20074;-64
2022/01/14 11:41:18;;;;;;;20.35;5.55;;;;;;;;;;5069167;28;20064;-66
2022/01/14 11:43:44;;;;;;;13.77;5.07;;;;;;;;;;5070865;28;20098;-65
2022/01/14 11:46:13;;;;;;;14.27;4.57;;;;;;;;;;5069352;28;20040;-66
2022/01/14 11:48:45;;;;;;;14.13;4.00;;;;;;;;;;5053021;28;20452;-65
2022/01/14 11:51:12;;;;;;;12.80;4.88;;;;;;;;;;5070979;28;20533;-65
2022/01/14 11:53:40;;;;;;;15.90;4.60;;;;;;;;;;5068970;28;20048;-66
2022/01/14 11:56:07;;;;;;;12.38;4.22;;;;;;;;;;5069432;28;20045;-67
2022/01/14 11:58:33;;;;;;;16.92;4.63;;;;;;;;;;5070299;28;20044;-66
2022/01/14 12:00:59;;;;;;;11.02;4.80;;;;;;;;;;5069621;28;20543;-66
2022/01/14 12:03:26;;;;;;;19.67;5.13;;;;;;;;;;5069440;28;20075;-66
2022/01/14 12:05:58;;;;;;;12.60;3.97;;;;;;;;;;5070426;28;20045;-67
2022/01/14 12:08:29;;;;;;;10.75;4.20;;;;;;;;;;5068043;28;20045;-65
2022/01/14 12:10:56;;;;;;;9.65;4.13;;;;;;;;;;5070073;28;20073;-65
2022/01/14 12:16:04;;;;;;;17.25;4.68;;;;;;;;;;5068776;28;20076;-64
2022/01/14 12:18:48;;;;;;;12.77;4.25;;;;;;;;;;5074783;28;20161;-64
2022/01/14 12:21:15;;;;;;;14.48;4.68;;;;;;;;;;5073944;28;20036;-66
2022/01/14 12:23:41;;;;;;;14.68;4.57;;;;;;;;;;5073945;28;20093;-67
2022/01/14 12:26:14;;;;;;;17.38;4.65;;;;;;;;;;5056198;28;20123;-65
2022/01/14 12:28:40;;;;;;;17.38;5.10;;;;;;;;;;5074145;28;20051;-64
2022/01/14 12:31:07;;;;;;;10.75;4.70;;;;;;;;;;5073808;28;20102;-64
2022/01/14 12:33:42;;;;;;;16.73;4.78;;;;;;;;;;5074155;28;20097;-63
2022/01/14 12:36:09;;;;;;;13.32;4.30;;;;;;;;;;5074767;28;20056;-64
2022/01/14 12:38:35;;;;;;;16.60;4.70;;;;;;;;;;5054254;28;20049;-63
2022/01/14 12:41:01;;;;;;;20.50;4.93;;;;;;;;;;5060785;28;20041;-63
2022/01/14 12:43:29;;;;;;;15.82;4.82;;;;;;;;;;5073834;28;20097;-64
2022/01/14 12:46:24;;;;;;;16.13;5.60;;;;;;;;;;5072794;28;20113;-65
2022/01/14 12:48:52;;;;;;;11.68;4.63;;;;;;;;;;5073756;28;20040;-65
2022/01/14 12:51:19;;;;;;;13.70;4.20;;;;;;;;;;5073859;28;20041;-65
2022/01/14 12:53:56;;;;;;;16.13;4.50;;;;;;;;;;5073146;28;20040;-65
2022/01/14 12:56:23;;;;;;;13.75;5.45;;;;;;;;;;5074113;28;20081;-64
2022/01/14 12:58:53;;;;;;;12.23;4.35;;;;;;;;;;5054229;28;20039;-65
2022/01/14 13:01:19;;;;;;;15.57;5.00;;;;;;;;;;5060250;28;20071;-64
2022/01/14 13:03:46;;;;;;;16.42;4.85;;;;;;;;;;5073703;28;20475;-64
2022/01/14 13:06:12;;;;;;;13.65;4.35;;;;;;;;;;5072283;28;20048;-64
2022/01/14 13:08:38;;;;;;;12.50;4.22;;;;;;;;;;5071957;28;20486;-64
2022/01/14 13:11:04;;;;;;;13.95;4.15;;;;;;;;;;5073643;28;20048;-64
2022/01/14 13:13:31;;;;;;;18.05;4.68;;;;;;;;;;5073213;28;20045;-64
2022/01/14 13:16:05;;;;;;;19.05;4.90;;;;;;;;;;5071858;28;20132;-64
2022/01/14 13:18:42;;;;;;;14.63;4.18;;;;;;;;;;5073470;28;20052;-65
2022/01/14 13:21:08;;;;;;;12.55;4.28;;;;;;;;;;5072859;28;20040;-65
2022/01/14 13:23:34;;;;;;;12.35;4.38;;;;;;;;;;5072691;28;20467;-64
2022/01/14 13:26:01;;;;;;;20.38;4.47;;;;;;;;;;5073036;28;20075;-64
2022/01/14 13:28:27;;;;;;;12.23;4.28;;;;;;;;;;5073457;28;20098;-64
2022/01/14 13:30:54;;;;;;;24.30;4.13;;;;;;;;;;5072078;28;20356;-66
2022/01/14 13:33:21;;;;;;;14.50;4.80;;;;;;;;;;5071483;28;20036;-64
2022/01/14 13:35:48;;;;;;;14.93;4.95;;;;;;;;;;5072304;28;20057;-65
2022/01/14 13:38:15;;;;;;;13.02;3.88;;;;;;;;;;5071087;28;20047;-66
2022/01/14 13:40:47;;;;;;;13.40;3.85;;;;;;;;;;5071786;28;20044;-66
2022/01/14 13:43:24;;;;;;;17.70;4.35;;;;;;;;;;5071447;28;20048;-64
2022/01/14 13:45:52;;;;;;;12.55;4.13;;;;;;;;;;5072333;28;20062;-64
2022/01/14 13:48:24;;;;;;;15.40;4.40;;;;;;;;;;5073884;28;20507;-64
2022/01/14 13:50:50;;;;;;;13.15;4.53;;;;;;;;;;5072764;28;20079;-65
2022/01/14 13:53:21;;;;;;;12.88;4.15;;;;;;;;;;5072046;28;21183;-65
2022/01/14 13:55:50;;;;;;;19.95;4.65;;;;;;;;;;5072268;28;20052;-64
2022/01/14 13:58:22;;;;;;;20.02;5.78;;;;;;;;;;5071345;28;20052;-65
2022/01/14 14:00:48;;;;;;;19.92;5.13;;;;;;;;;;5070862;28;20048;-67
2022/01/14 14:03:54;;;;;;;17.10;4.97;;;;;;;;;;5071596;28;20052;-65
2022/01/14 14:06:56;;;;;;;17.63;5.03;;;;;;;;;;5054253;28;20063;-63
2022/01/14 14:09:30;;;;;;;10.38;4.30;;;;;;;;;;5072187;28;20076;-64
2022/01/14 14:12:11;;;;;;;19.65;4.97;;;;;;;;;;5072880;28;20398;-63
2022/01/14 14:17:22;;;;;;;13.48;5.28;;;;;;;;;;5071915;28;20063;-64
2022/01/14 14:19:50;;;;;;;15.85;4.80;;;;;;;;;;5072524;28;20044;-64
2022/01/14 14:22:21;;;;;;;20.05;5.22;;;;;;;;;;5071597;28;20112;-63
2022/01/14 14:25:12;;;;;;;17.73;5.15;;;;;;;;;;5072720;28;20040;-64
2022/01/14 14:27:40;;;;;;;25.27;5.30;;;;;;;;;;5072054;28;20138;-65
2022/01/14 14:30:12;;;;;;;17.15;5.03;;;;;;;;;;5070030;28;20563;-64
2022/01/14 14:32:39;;;;;;;20.08;5.60;;;;;;;;;;5072963;28;20044;-66
2022/01/14 14:35:08;;;;;;;20.65;5.10;;;;;;;;;;5070706;28;20399;-65
2022/01/14 14:37:37;;;;;;;17.40;5.13;;;;;;;;;;5070028;28;20040;-65
2022/01/14 14:40:05;;;;;;;16.73;4.80;;;;;;;;;;5071269;28;20036;-65
2022/01/14 14:42:31;;;;;;;20.48;4.65;;;;;;;;;;5070137;28;20040;-65
2022/01/14 14:44:57;;;;;;;15.40;5.07;;;;;;;;;;5070100;28;20036;-65
2022/01/14 14:47:24;;;;;;;15.02;5.40;;;;;;;;;;5071885;28;20048;-64
2022/01/14 14:49:50;;;;;;;15.50;5.10;;;;;;;;;;5071604;28;20038;-64
2022/01/14 14:52:19;;;;;;;21.17;5.05;;;;;;;;;;5070340;28;20562;-64
2022/01/14 14:54:45;;;;;;;17.58;5.38;;;;;;;;;;5071896;28;20068;-64
2022/01/14 14:57:11;;;;;;;18.75;5.10;;;;;;;;;;5071700;28;20048;-64